createdAt,value
2017-07-31T00:01:15.895Z,15.00
2017-07-31T00:03:43.596Z,14.90
2017-07-31T00:06:10.536Z,14.90
2017-07-31T00:08:37.486Z,14.90
2017-07-31T00:11:05.386Z,15.00
2017-07-31T00:13:33.066Z,15.00
2017-07-31T00:16:00.001Z,15.10
2017-07-31T00:18:26.968Z,15.00
2017-07-31T00:20:54.660Z,15.10
2017-07-31T00:23:21.618Z,15.10
2017-07-31T00:25:48.551Z,15.00
2017-07-31T00:28:15.521Z,15.10
2017-07-31T00:30:42.484Z,15.10
2017-07-31T00:33:10.243Z,14.90
2017-07-31T00:35:37.188Z,14.90
2017-07-31T00:38:04.172Z,14.80
2017-07-31T00:40:31.931Z,14.90
2017-07-31T00:42:59.656Z,14.70
2017-07-31T00:45:27.601Z,14.80
2017-07-31T00:47:54.546Z,14.90
2017-07-31T00:50:21.482Z,15.10
2017-07-31T00:52:49.274Z,15.20
2017-07-31T00:55:16.220Z,15.30
2017-07-31T00:57:44.175Z,15.10
2017-07-31T01:00:11.124Z,14.90
2017-07-31T01:02:38.056Z,14.80
2017-07-31T01:05:06.083Z,14.80
2017-07-31T01:07:33.815Z,15.00
2017-07-31T01:10:00.800Z,15.00
2017-07-31T01:12:28.497Z,15.20
2017-07-31T01:14:55.458Z,15.20
2017-07-31T01:17:22.397Z,15.10
2017-07-31T01:19:49.372Z,15.10
2017-07-31T01:22:16.305Z,15.10
2017-07-31T01:24:43.308Z,15.00
2017-07-31T01:27:11.198Z,15.00
2017-07-31T01:29:38.145Z,15.00
2017-07-31T01:32:05.127Z,15.10
2017-07-31T01:34:32.071Z,15.10
2017-07-31T01:36:59.802Z,15.30
2017-07-31T01:39:26.764Z,15.30
2017-07-31T01:41:53.695Z,15.40
2017-07-31T01:44:20.665Z,15.40
2017-07-31T01:46:47.602Z,15.40
2017-07-31T01:49:14.551Z,15.40
2017-07-31T01:51:41.490Z,15.40
2017-07-31T01:54:08.471Z,15.30
2017-07-31T01:56:35.412Z,15.20
2017-07-31T01:59:02.340Z,15.20
2017-07-31T02:01:30.275Z,15.10
2017-07-31T02:03:57.225Z,15.10
2017-07-31T02:06:24.213Z,15.10
2017-07-31T02:08:51.174Z,15.20
2017-07-31T02:11:18.138Z,15.40
2017-07-31T02:13:45.077Z,15.40
2017-07-31T02:16:12.820Z,15.30
2017-07-31T02:18:39.759Z,15.20
2017-07-31T02:21:06.735Z,15.20
2017-07-31T02:23:33.676Z,15.30
2017-07-31T02:26:00.620Z,15.30
2017-07-31T02:28:27.569Z,15.20
2017-07-31T02:30:54.541Z,15.20
2017-07-31T02:33:21.498Z,15.20
2017-07-31T02:35:48.474Z,15.10
2017-07-31T02:38:16.371Z,15.10
2017-07-31T02:40:43.337Z,15.10
2017-07-31T02:43:10.294Z,15.00
2017-07-31T02:45:37.281Z,14.90
2017-07-31T02:48:05.078Z,14.90
2017-07-31T02:50:32.086Z,14.80
2017-07-31T02:52:59.073Z,14.80
2017-07-31T02:55:26.026Z,14.80
2017-07-31T02:57:53.035Z,14.80
2017-07-31T03:00:19.980Z,14.70
2017-07-31T03:02:46.957Z,14.70
2017-07-31T03:05:13.909Z,14.70
2017-07-31T03:07:40.907Z,14.60
2017-07-31T03:10:08.685Z,14.60
2017-07-31T03:12:36.601Z,14.70
2017-07-31T03:15:03.550Z,14.70
2017-07-31T03:17:31.448Z,14.70
2017-07-31T03:19:58.394Z,14.80
2017-07-31T03:22:25.340Z,14.70
2017-07-31T03:24:52.288Z,14.70
2017-07-31T03:27:19.217Z,14.80
2017-07-31T03:29:46.945Z,15.00
2017-07-31T03:32:13.887Z,15.00
2017-07-31T03:34:40.849Z,15.10
2017-07-31T03:37:07.792Z,15.20
2017-07-31T03:39:34.750Z,15.20
2017-07-31T03:42:02.486Z,15.30
2017-07-31T03:44:29.449Z,15.20
2017-07-31T03:46:56.392Z,15.20
2017-07-31T03:49:25.187Z,15.20
2017-07-31T03:51:52.883Z,15.20
2017-07-31T03:54:20.576Z,15.10
2017-07-31T03:56:47.522Z,15.10
2017-07-31T03:59:14.502Z,15.00
2017-07-31T04:01:42.216Z,15.00
2017-07-31T04:04:10.098Z,15.00
2017-07-31T04:06:37.798Z,15.10
2017-07-31T04:09:05.525Z,15.10
2017-07-31T04:11:32.476Z,15.10
2017-07-31T04:13:59.493Z,15.20
2017-07-31T04:16:26.472Z,15.20
2017-07-31T04:18:53.442Z,15.20
2017-07-31T04:21:20.387Z,15.20
2017-07-31T04:23:48.110Z,15.40
2017-07-31T04:26:15.042Z,15.40
2017-07-31T04:28:42.017Z,15.50
2017-07-31T04:31:08.958Z,15.60
2017-07-31T04:33:36.639Z,15.70
2017-07-31T04:36:03.596Z,15.90
2017-07-31T04:38:32.255Z,16.00
2017-07-31T04:41:00.159Z,16.00
2017-07-31T04:43:28.905Z,16.10
2017-07-31T04:45:55.853Z,16.00
2017-07-31T04:48:22.832Z,16.00
2017-07-31T04:50:50.534Z,16.10
2017-07-31T04:53:17.504Z,16.10
2017-07-31T04:55:44.453Z,16.20
2017-07-31T04:58:11.423Z,16.20
2017-07-31T05:00:39.128Z,16.30
2017-07-31T05:03:06.086Z,16.30
2017-07-31T05:05:33.058Z,16.30
2017-07-31T05:08:00.028Z,16.20
2017-07-31T05:10:28.412Z,16.30
2017-07-31T05:12:55.389Z,16.30
2017-07-31T05:15:24.280Z,16.30
2017-07-31T05:17:51.225Z,16.40
2017-07-31T05:20:18.308Z,16.50
2017-07-31T05:22:45.267Z,16.60
2017-07-31T05:25:12.981Z,16.80
2017-07-31T05:27:39.938Z,16.80
2017-07-31T05:30:08.853Z,16.90
2017-07-31T05:32:35.827Z,16.80
2017-07-31T05:35:02.815Z,16.70
2017-07-31T05:37:29.794Z,16.70
2017-07-31T05:39:56.757Z,16.70
2017-07-31T05:42:24.485Z,16.70
2017-07-31T05:44:51.432Z,16.70
2017-07-31T05:47:18.412Z,16.80
2017-07-31T05:49:45.362Z,16.80
2017-07-31T05:52:12.301Z,16.90
2017-07-31T05:54:40.058Z,17.30
2017-07-31T05:57:07.778Z,17.50
2017-07-31T05:59:34.737Z,17.50
2017-07-31T06:02:01.673Z,17.60
2017-07-31T06:04:28.924Z,17.50
2017-07-31T06:06:55.865Z,17.50
2017-07-31T06:09:23.989Z,17.50
2017-07-31T06:11:51.696Z,17.60
2017-07-31T06:14:18.684Z,17.60
2017-07-31T06:16:46.414Z,17.90
2017-07-31T06:19:13.401Z,17.90
2017-07-31T06:21:41.247Z,18.10
2017-07-31T06:24:08.200Z,18.10
2017-07-31T06:26:36.144Z,18.00
2017-07-31T06:29:03.909Z,17.90
2017-07-31T06:31:32.846Z,17.90
2017-07-31T06:33:59.803Z,18.10
2017-07-31T06:36:26.744Z,18.30
2017-07-31T06:38:53.696Z,18.60
2017-07-31T06:41:20.636Z,18.80
2017-07-31T06:43:47.597Z,18.80
2017-07-31T06:46:14.529Z,18.90
2017-07-31T06:48:41.485Z,18.70
2017-07-31T06:51:08.426Z,18.40
2017-07-31T06:53:35.785Z,18.30
2017-07-31T06:56:02.745Z,18.30
2017-07-31T06:58:29.774Z,18.40
2017-07-31T07:00:57.650Z,18.40
2017-07-31T07:03:25.469Z,18.40
2017-07-31T07:05:53.176Z,18.60
2017-07-31T07:08:21.144Z,18.60
2017-07-31T07:10:48.088Z,18.70
2017-07-31T07:13:15.048Z,18.60
2017-07-31T07:15:41.987Z,18.60
2017-07-31T07:18:08.940Z,18.80
2017-07-31T07:20:35.888Z,19.10
2017-07-31T07:23:02.866Z,19.00
2017-07-31T07:25:29.810Z,19.40
2017-07-31T07:27:56.793Z,19.70
2017-07-31T07:30:24.499Z,19.50
2017-07-31T07:32:52.496Z,19.40
2017-07-31T07:35:20.453Z,19.00
2017-07-31T07:37:47.423Z,19.00
2017-07-31T07:40:16.069Z,19.20
2017-07-31T07:42:43.028Z,19.10
2017-07-31T07:45:09.969Z,19.30
2017-07-31T07:47:37.918Z,19.40
2017-07-31T07:50:04.865Z,19.40
2017-07-31T07:52:31.817Z,19.60
2017-07-31T07:54:58.767Z,19.60
2017-07-31T07:57:25.715Z,19.60
2017-07-31T07:59:52.673Z,19.80
2017-07-31T08:02:19.642Z,19.80
2017-07-31T08:04:48.379Z,20.00
2017-07-31T08:07:15.323Z,20.00
2017-07-31T08:09:42.293Z,20.00
2017-07-31T08:12:11.244Z,20.10
2017-07-31T08:14:38.204Z,20.40
2017-07-31T08:17:05.153Z,20.30
2017-07-31T08:19:33.132Z,20.10
2017-07-31T08:22:00.081Z,20.00
2017-07-31T08:24:27.057Z,20.00
2017-07-31T08:26:54.005Z,20.00
2017-07-31T08:29:21.748Z,20.00
2017-07-31T08:31:48.679Z,20.00
2017-07-31T08:34:15.659Z,19.90
2017-07-31T08:36:43.361Z,20.10
2017-07-31T08:39:10.318Z,20.10
2017-07-31T08:41:37.249Z,20.10
2017-07-31T08:44:04.197Z,20.20
2017-07-31T08:46:33.697Z,20.30
2017-07-31T08:49:00.672Z,20.40
2017-07-31T08:51:27.673Z,20.50
2017-07-31T08:53:54.610Z,20.40
2017-07-31T08:56:21.551Z,20.50
2017-07-31T08:58:50.192Z,20.70
2017-07-31T09:01:17.155Z,20.70
2017-07-31T09:03:44.092Z,20.80
2017-07-31T09:06:11.054Z,20.80
2017-07-31T09:08:38.767Z,21.20
2017-07-31T09:11:05.731Z,21.10
2017-07-31T09:13:32.676Z,21.30
2017-07-31T09:16:00.564Z,21.40
2017-07-31T09:18:27.504Z,21.30
2017-07-31T09:20:54.445Z,21.40
2017-07-31T09:23:21.483Z,21.50
2017-07-31T09:25:48.440Z,21.40
2017-07-31T09:28:15.395Z,21.30
2017-07-31T09:30:42.342Z,21.40
2017-07-31T09:33:09.317Z,21.40
2017-07-31T09:35:36.264Z,21.50
2017-07-31T09:38:03.226Z,21.50
2017-07-31T09:40:31.093Z,21.40
2017-07-31T09:42:59.018Z,21.50
2017-07-31T09:45:25.994Z,21.50
2017-07-31T09:47:53.053Z,21.30
2017-07-31T09:50:20.897Z,21.40
2017-07-31T09:52:47.844Z,21.30
2017-07-31T09:55:14.788Z,21.30
2017-07-31T09:57:42.716Z,21.40
2017-07-31T10:00:10.601Z,21.70
2017-07-31T10:02:39.330Z,22.00
2017-07-31T10:05:06.292Z,22.00
2017-07-31T10:07:33.250Z,22.30
2017-07-31T10:10:02.231Z,22.00
2017-07-31T10:12:29.188Z,21.80
2017-07-31T10:14:57.143Z,21.70
2017-07-31T10:17:27.812Z,21.90
2017-07-31T10:19:55.760Z,21.90
2017-07-31T10:22:22.705Z,21.80
2017-07-31T10:24:49.690Z,21.80
2017-07-31T10:27:16.621Z,21.90
2017-07-31T10:29:44.324Z,22.00
2017-07-31T10:32:11.285Z,22.00
2017-07-31T10:34:38.240Z,22.10
2017-07-31T10:37:06.170Z,22.00
2017-07-31T10:39:34.070Z,22.00
2017-07-31T10:42:02.016Z,22.10
2017-07-31T10:44:28.995Z,22.30
2017-07-31T10:46:55.916Z,22.70
2017-07-31T10:49:22.951Z,22.80
2017-07-31T10:51:49.897Z,22.60
2017-07-31T10:54:16.840Z,22.50
2017-07-31T10:56:43.819Z,22.80
2017-07-31T10:59:11.677Z,23.10
2017-07-31T11:01:39.425Z,22.90
2017-07-31T11:04:06.389Z,22.90
2017-07-31T11:06:33.352Z,23.00
2017-07-31T11:09:01.074Z,22.80
2017-07-31T11:11:28.079Z,22.80
2017-07-31T11:13:55.971Z,22.80
2017-07-31T11:16:22.925Z,23.00
2017-07-31T11:18:50.879Z,23.30
2017-07-31T11:21:17.840Z,23.10
2017-07-31T11:23:44.784Z,23.00
2017-07-31T11:26:11.741Z,22.80
2017-07-31T11:28:38.696Z,22.90
2017-07-31T11:31:05.659Z,22.80
2017-07-31T11:33:33.373Z,23.10
2017-07-31T11:36:00.367Z,23.00
2017-07-31T11:38:28.065Z,23.10
2017-07-31T11:40:55.954Z,23.00
2017-07-31T11:43:24.370Z,23.00
2017-07-31T11:45:51.366Z,22.90
2017-07-31T11:48:18.334Z,23.10
2017-07-31T11:50:45.373Z,23.40
2017-07-31T11:53:12.328Z,23.40
2017-07-31T11:55:40.188Z,23.80
2017-07-31T11:58:07.162Z,24.00
2017-07-31T12:00:35.077Z,24.20
2017-07-31T12:03:02.152Z,24.30
2017-07-31T12:05:30.110Z,24.40
2017-07-31T12:07:57.103Z,24.60
2017-07-31T12:10:24.821Z,23.90
2017-07-31T12:12:51.765Z,23.80
2017-07-31T12:15:18.749Z,24.20
2017-07-31T12:17:46.634Z,24.60
2017-07-31T12:20:16.305Z,24.50
2017-07-31T12:22:43.254Z,24.50
2017-07-31T12:25:10.214Z,24.50
2017-07-31T12:27:38.845Z,24.00
2017-07-31T12:30:06.736Z,24.00
2017-07-31T12:32:33.680Z,24.10
2017-07-31T12:35:07.793Z,24.20
2017-07-31T12:37:34.751Z,24.70
2017-07-31T12:40:01.707Z,24.90
2017-07-31T12:47:58.847Z,24.50
2017-07-31T12:50:27.745Z,24.10
2017-07-31T12:52:54.730Z,23.80
2017-07-31T12:55:21.690Z,24.80
2017-07-31T12:57:49.397Z,25.30
2017-07-31T13:00:16.357Z,25.30
2017-07-31T13:02:43.302Z,25.10
2017-07-31T13:05:10.272Z,24.90
2017-07-31T13:07:37.993Z,24.20
2017-07-31T13:10:04.948Z,24.20
2017-07-31T13:12:32.822Z,24.20
2017-07-31T13:14:59.817Z,23.90
2017-07-31T13:17:27.594Z,24.00
2017-07-31T13:19:54.577Z,23.60
2017-07-31T13:22:21.549Z,23.80
2017-07-31T13:24:49.277Z,24.60
2017-07-31T13:27:17.142Z,24.50
2017-07-31T13:29:44.116Z,25.30
2017-07-31T13:32:11.068Z,25.80
2017-07-31T13:34:38.798Z,25.80
2017-07-31T13:37:05.752Z,25.80
2017-07-31T13:39:33.707Z,25.50
2017-07-31T13:42:00.668Z,25.20
2017-07-31T13:44:28.631Z,26.50
2017-07-31T13:46:55.605Z,26.90
2017-07-31T13:49:24.134Z,29.50
2017-07-31T13:51:52.016Z,29.40
2017-07-31T13:54:19.002Z,30.10
2017-07-31T13:56:46.728Z,31.50
2017-07-31T13:59:14.629Z,31.50
2017-07-31T14:01:41.578Z,33.50
2017-07-31T14:04:09.306Z,34.20
2017-07-31T14:06:36.263Z,34.10
2017-07-31T14:09:03.213Z,34.50
2017-07-31T14:11:30.183Z,33.90
2017-07-31T14:13:57.124Z,32.60
2017-07-31T14:16:25.881Z,32.00
2017-07-31T14:18:53.751Z,31.90
2017-07-31T14:21:20.730Z,31.10
2017-07-31T14:23:50.816Z,32.30
2017-07-31T14:26:17.822Z,32.20
2017-07-31T14:28:45.801Z,30.50
2017-07-31T14:31:12.760Z,31.70
2017-07-31T14:33:40.720Z,33.10
2017-07-31T14:36:08.608Z,33.00
2017-07-31T14:38:35.551Z,34.10
2017-07-31T14:41:03.512Z,34.10
2017-07-31T14:43:30.456Z,32.30
2017-07-31T14:45:57.459Z,32.80
2017-07-31T14:48:24.396Z,32.60
2017-07-31T14:50:51.391Z,31.80
2017-07-31T14:53:18.390Z,31.50
2017-07-31T14:55:45.377Z,28.40
2017-07-31T14:58:13.225Z,26.80
2017-07-31T15:00:40.198Z,25.40
2017-07-31T15:03:07.144Z,24.70
2017-07-31T15:05:34.105Z,25.00
2017-07-31T15:08:01.105Z,25.30
2017-07-31T15:10:28.093Z,25.20
2017-07-31T15:12:56.019Z,25.10
2017-07-31T15:15:22.986Z,25.40
2017-07-31T15:17:49.930Z,25.90
2017-07-31T15:20:16.955Z,25.80
2017-07-31T15:22:44.817Z,25.80
2017-07-31T15:25:11.782Z,25.40
2017-07-31T15:27:38.734Z,24.90
2017-07-31T15:30:06.645Z,24.60
2017-07-31T15:32:34.359Z,23.90
2017-07-31T15:35:01.342Z,23.90
2017-07-31T15:37:28.281Z,23.60
2017-07-31T15:39:56.122Z,23.50
2017-07-31T15:42:23.983Z,23.30
2017-07-31T15:44:51.869Z,23.10
2017-07-31T15:47:18.827Z,23.10
2017-07-31T15:49:45.775Z,23.00
2017-07-31T15:52:12.696Z,22.80
2017-07-31T15:54:39.652Z,22.70
2017-07-31T15:57:06.593Z,22.60
2017-07-31T15:59:42.087Z,22.80
2017-07-31T16:02:10.049Z,22.80
2017-07-31T16:04:39.088Z,22.90
2017-07-31T16:07:06.073Z,22.80
2017-07-31T16:09:33.164Z,23.10
2017-07-31T16:12:01.838Z,25.10
2017-07-31T16:14:30.726Z,25.00
2017-07-31T16:16:58.637Z,25.70
2017-07-31T16:19:25.621Z,25.60
2017-07-31T16:21:52.590Z,26.30
2017-07-31T16:24:20.476Z,26.00
2017-07-31T16:26:47.454Z,25.30
2017-07-31T16:29:22.059Z,24.90
2017-07-31T16:31:49.007Z,24.70
2017-07-31T16:34:16.006Z,24.70
2017-07-31T16:36:43.886Z,24.40
2017-07-31T16:39:24.792Z,24.10
2017-07-31T16:42:00.517Z,23.70
2017-07-31T16:44:47.292Z,23.60
2017-07-31T16:47:18.675Z,23.50
2017-07-31T16:49:45.644Z,23.40
2017-07-31T16:52:13.608Z,23.30
2017-07-31T16:54:40.573Z,23.00
2017-07-31T16:57:07.521Z,23.10
2017-07-31T16:59:35.404Z,23.20
2017-07-31T17:02:04.134Z,23.10
2017-07-31T17:04:31.227Z,23.10
2017-07-31T17:06:58.169Z,22.90
2017-07-31T17:09:27.012Z,22.40
2017-07-31T17:11:53.979Z,22.40
2017-07-31T17:14:20.969Z,22.40
2017-07-31T17:16:47.931Z,22.20
2017-07-31T17:19:14.889Z,22.10
2017-07-31T17:21:41.862Z,22.20
2017-07-31T17:24:08.821Z,22.30
2017-07-31T17:26:35.781Z,22.30
2017-07-31T17:29:02.787Z,22.30
2017-07-31T17:31:29.765Z,22.20
2017-07-31T17:33:56.701Z,22.20
2017-07-31T17:36:23.688Z,22.20
2017-07-31T17:38:50.669Z,22.10
2017-07-31T17:41:17.642Z,22.20
2017-07-31T17:43:50.221Z,22.20
2017-07-31T17:46:17.241Z,22.10
2017-07-31T17:48:44.213Z,22.00
2017-07-31T17:51:11.156Z,22.10
2017-07-31T17:53:40.081Z,22.10
2017-07-31T17:56:07.807Z,22.20
2017-07-31T17:58:34.756Z,22.10
2017-07-31T18:01:01.711Z,22.10
2017-07-31T18:03:28.660Z,22.20
2017-07-31T18:05:55.679Z,22.10
2017-07-31T18:08:26.817Z,22.10
2017-07-31T18:10:55.505Z,22.00
2017-07-31T18:13:23.453Z,21.90
2017-07-31T18:15:51.342Z,21.80
2017-07-31T18:18:18.313Z,21.70
2017-07-31T18:20:45.249Z,21.80
2017-07-31T18:23:12.502Z,21.80
2017-07-31T18:25:39.457Z,21.80
2017-07-31T18:28:06.428Z,21.70
2017-07-31T18:30:33.385Z,21.80
2017-07-31T18:33:00.350Z,21.80
2017-07-31T18:35:33.710Z,21.70
2017-07-31T18:38:01.426Z,21.40
2017-07-31T18:40:28.372Z,21.40
2017-07-31T18:42:55.365Z,21.30
2017-07-31T18:45:23.074Z,21.30
2017-07-31T18:47:50.017Z,21.30
2017-07-31T18:50:16.993Z,21.20
2017-07-31T18:52:43.943Z,21.20
2017-07-31T18:55:11.683Z,21.00
2017-07-31T18:57:40.661Z,21.00
2017-07-31T19:00:07.875Z,20.80
2017-07-31T19:02:35.643Z,20.50
2017-07-31T19:05:03.392Z,20.50
2017-07-31T19:07:31.131Z,20.40
2017-07-31T19:09:59.876Z,20.20
2017-07-31T19:12:28.730Z,20.20
2017-07-31T19:14:55.720Z,20.20
2017-07-31T19:17:22.665Z,20.10
2017-07-31T19:19:49.600Z,20.00
2017-07-31T19:22:16.569Z,20.10
2017-07-31T19:24:43.512Z,20.10
2017-07-31T19:27:11.425Z,20.20
2017-07-31T19:29:39.406Z,20.20
2017-07-31T19:32:06.394Z,20.20
2017-07-31T19:34:33.341Z,20.30
2017-07-31T19:37:00.394Z,20.30
2017-07-31T19:39:28.101Z,20.10
2017-07-31T19:41:55.987Z,20.10
2017-07-31T19:44:22.937Z,20.10
2017-07-31T19:46:49.890Z,20.20
2017-07-31T19:49:17.622Z,20.20
2017-07-31T19:51:44.593Z,20.10
2017-07-31T19:54:12.316Z,19.90
2017-07-31T19:56:41.306Z,19.90
2017-07-31T19:59:10.316Z,19.80
2017-07-31T20:01:39.120Z,19.90
2017-07-31T20:04:07.844Z,19.90
2017-07-31T20:06:34.785Z,19.90
2017-07-31T20:09:01.776Z,19.90
2017-07-31T20:11:28.722Z,19.90
2017-07-31T20:13:56.657Z,19.90
2017-07-31T20:16:23.606Z,19.80
2017-07-31T20:18:50.582Z,19.70
2017-07-31T20:21:17.517Z,19.70
2017-07-31T20:23:44.459Z,19.60
2017-07-31T20:26:11.424Z,19.50
2017-07-31T20:28:40.182Z,19.50
2017-07-31T20:31:07.125Z,19.50
2017-07-31T20:33:35.139Z,19.40
2017-07-31T20:36:02.849Z,19.50
2017-07-31T20:38:29.880Z,19.50
2017-07-31T20:40:57.589Z,19.40
2017-07-31T20:43:24.556Z,19.40
2017-07-31T20:45:51.540Z,19.30
2017-07-31T20:48:19.316Z,19.10
2017-07-31T20:50:48.029Z,19.00
2017-07-31T20:53:15.036Z,18.90
2017-07-31T20:55:41.991Z,18.90
2017-07-31T20:58:10.080Z,18.90
2017-07-31T21:00:37.014Z,18.80
2017-07-31T21:03:04.113Z,18.80
2017-07-31T21:05:33.730Z,18.50
2017-07-31T21:08:01.428Z,18.50
2017-07-31T21:10:29.402Z,18.50
2017-07-31T21:12:57.298Z,18.40
2017-07-31T21:15:24.262Z,18.30
2017-07-31T21:17:51.966Z,18.20
2017-07-31T21:20:18.965Z,18.20
2017-07-31T21:22:45.908Z,18.20
2017-07-31T21:25:13.886Z,18.10
2017-07-31T21:27:41.623Z,17.90
2017-07-31T21:30:09.666Z,17.80
2017-07-31T21:32:36.644Z,17.90
2017-07-31T21:35:05.612Z,17.90
2017-07-31T21:37:33.594Z,17.80
2017-07-31T21:40:00.552Z,17.70
2017-07-31T21:42:28.469Z,17.50
2017-07-31T21:44:56.538Z,17.80
2017-07-31T21:47:24.449Z,17.90
2017-07-31T21:49:51.410Z,17.70
2017-07-31T21:52:18.380Z,17.70
2017-07-31T21:54:45.349Z,17.70
2017-07-31T21:57:13.208Z,17.90
2017-07-31T21:59:40.267Z,17.90
2017-07-31T22:02:07.253Z,17.80
2017-07-31T22:04:34.214Z,17.70
2017-07-31T22:07:01.923Z,17.80
2017-07-31T22:09:28.893Z,17.80
2017-07-31T22:11:57.765Z,17.80
2017-07-31T22:14:24.717Z,17.60
2017-07-31T22:16:51.673Z,17.80
2017-07-31T22:19:18.636Z,17.70
2017-07-31T22:21:45.772Z,17.60
2017-07-31T22:24:13.625Z,17.60
2017-07-31T22:26:40.586Z,17.40
2017-07-31T22:29:07.525Z,17.30
2017-07-31T22:31:34.573Z,17.30
2017-07-31T22:34:01.613Z,17.30
2017-07-31T22:36:29.552Z,17.10
2017-07-31T22:38:56.490Z,17.20
2017-07-31T22:41:25.441Z,17.20
2017-07-31T22:43:52.372Z,17.20
2017-07-31T22:46:20.255Z,17.20
2017-07-31T22:48:50.107Z,17.20
2017-07-31T22:51:18.170Z,17.20
2017-07-31T22:53:45.132Z,17.10
2017-07-31T22:56:12.113Z,17.10
2017-07-31T22:58:39.417Z,17.20
2017-07-31T23:01:07.280Z,17.20
2017-07-31T23:03:37.366Z,17.20
2017-07-31T23:06:05.188Z,17.10
2017-07-31T23:08:32.135Z,17.10
2017-07-31T23:10:59.174Z,17.10
2017-07-31T23:13:26.155Z,17.20
2017-07-31T23:15:54.101Z,16.90
2017-07-31T23:18:21.043Z,16.90
2017-07-31T23:20:48.076Z,17.00
2017-07-31T23:23:15.961Z,16.90
2017-07-31T23:25:42.938Z,16.80
2017-07-31T23:28:09.986Z,16.70
2017-07-31T23:30:37.701Z,16.60
2017-07-31T23:33:04.685Z,16.60
2017-07-31T23:35:31.629Z,16.80
2017-07-31T23:37:58.625Z,16.90
2017-07-31T23:40:25.602Z,17.10
2017-07-31T23:42:52.538Z,17.20
2017-07-31T23:45:19.498Z,17.20
2017-07-31T23:47:46.481Z,17.10
2017-07-31T23:50:14.192Z,17.10
2017-07-31T23:52:43.156Z,17.10
2017-07-31T23:55:10.083Z,17.00
2017-07-31T23:57:37.928Z,16.90
